Time;durP1;ratioP1;P1;durP2;ratioP2;P2;SDS_P1;SDS_P2;PMS_P1;PMS_P2;Temp;Humidity;BMP_temperature;BMP_pressure;BME280_temperature;BME280_humidity;BME280_pressure;Samples;Min_cycle;Max_cycle;Signal;HPM_P1;HPM_P2
2023/03/07 00:02:09;;;;;;;22.40;10.80;;;;;;;-0.10;60.70;99358.75;5000465;28;20064;-70
2023/03/07 00:04:35;;;;;;;22.95;10.73;;;;;;;0.08;60.30;99353.25;4996748;28;20025;-70
2023/03/07 00:07:00;;;;;;;20.02;9.25;;;;;;;-0.37;61.81;99350.69;5002875;28;20076;-70
2023/03/07 00:09:26;;;;;;;19.40;8.55;;;;;;;-0.44;61.73;99355.09;5001923;28;20120;-70
2023/03/07 00:11:51;;;;;;;21.75;9.00;;;;;;;-0.71;62.75;99346.19;5000384;28;20387;-71
2023/03/07 00:14:17;;;;;;;21.02;8.68;;;;;;;0.09;60.72;99349.78;5001744;28;20033;-70
2023/03/07 00:16:43;;;;;;;22.75;9.63;;;;;;;0.10;60.72;99354.06;4999110;28;20671;-71
2023/03/07 00:19:08;;;;;;;23.17;9.85;;;;;;;-0.09;60.57;99340.75;4986866;28;20042;-71
2023/03/07 00:21:34;;;;;;;20.45;9.30;;;;;;;-0.13;61.05;99333.97;4998399;28;20064;-71
2023/03/07 00:23:59;;;;;;;18.90;9.38;;;;;;;-0.58;62.02;99337.41;5007545;28;20112;-69
2023/03/07 00:26:26;;;;;;;20.77;9.60;;;;;;;-0.18;60.82;99336.63;4999631;28;20037;-71
2023/03/07 00:28:52;;;;;;;17.20;8.65;;;;;;;-0.38;61.78;99324.19;5000640;28;20152;-71
2023/03/07 00:31:19;;;;;;;14.35;7.80;;;;;;;-0.73;62.66;99309.47;5005483;28;20064;-67
2023/03/07 00:33:45;;;;;;;16.67;7.90;;;;;;;-0.49;61.90;99322.72;5005814;28;20045;-68
2023/03/07 00:36:16;;;;;;;16.35;8.68;;;;;;;-0.42;61.50;99307.16;5002401;28;20021;-68
2023/03/07 00:38:42;;;;;;;18.10;8.02;;;;;;;-0.70;62.98;99316.28;5000243;28;20414;-68
2023/03/07 00:41:18;;;;;;;20.90;8.98;;;;;;;-0.39;61.50;99312.25;5004095;28;20061;-70
2023/03/07 00:43:45;;;;;;;20.70;8.73;;;;;;;0.20;60.47;99306.72;5009388;28;20033;-71
2023/03/07 00:46:15;;;;;;;19.80;8.00;;;;;;;-0.11;61.16;99300.56;5005019;28;20088;-70
2023/03/07 00:48:40;;;;;;;16.42;7.13;;;;;;;0.10;60.62;99300.09;5001546;28;20052;-66
2023/03/07 00:51:08;;;;;;;17.48;8.38;;;;;;;0.20;60.05;99305.88;4985488;28;20037;-66
2023/03/07 00:53:34;;;;;;;22.15;8.95;;;;;;;-0.32;61.98;99301.88;5000921;28;20042;-66
2023/03/07 00:56:01;;;;;;;21.50;7.47;;;;;;;0.16;60.49;99297.38;5002712;28;20037;-65
2023/03/07 00:58:30;;;;;;;18.17;8.50;;;;;;;-0.04;61.42;99299.53;4984958;28;20096;-65
2023/03/07 01:00:56;;;;;;;18.92;8.30;;;;;;;-0.47;62.44;99290.16;5003852;28;20099;-67
2023/03/07 01:03:23;;;;;;;14.25;7.13;;;;;;;0.13;60.30;99304.31;4999275;28;20088;-66
2023/03/07 01:05:49;;;;;;;16.30;6.93;;;;;;;0.41;59.76;99299.38;5000063;28;20034;-66
2023/03/07 01:08:15;;;;;;;15.48;6.32;;;;;;;0.73;58.70;99288.34;5001699;28;20037;-66
2023/03/07 01:10:42;;;;;;;16.05;7.55;;;;;;;0.37;59.61;99293.50;5004220;28;20053;-66
2023/03/07 01:13:09;;;;;;;11.82;5.85;;;;;;;0.03;60.22;99288.25;5002641;28;20041;-65
2023/03/07 01:15:35;;;;;;;16.80;6.88;;;;;;;0.48;59.91;99273.53;4986591;28;20757;-66
2023/03/07 01:18:02;;;;;;;19.95;7.35;;;;;;;0.15;60.08;99280.28;5001877;28;20470;-67
2023/03/07 01:20:31;;;;;;;17.27;6.75;;;;;;;-0.30;61.52;99270.13;5000119;28;20048;-66
2023/03/07 01:22:56;;;;;;;14.60;7.18;;;;;;;0.16;60.06;99258.00;4998109;28;20176;-66
2023/03/07 01:25:22;;;;;;;13.23;5.97;;;;;;;0.03;60.44;99258.28;5003362;28;20542;-66
2023/03/07 01:27:50;;;;;;;15.30;6.38;;;;;;;0.16;60.39;99252.88;5015595;28;20045;-67
2023/03/07 01:30:16;;;;;;;15.18;6.03;;;;;;;0.51;59.19;99249.47;5000860;28;20113;-71
2023/03/07 01:32:41;;;;;;;15.48;5.70;;;;;;;-0.06;60.97;99247.34;5000952;28;20034;-69
2023/03/07 01:35:08;;;;;;;15.70;5.50;;;;;;;-0.01;60.92;99248.97;5002944;28;20033;-73
2023/03/07 01:37:33;;;;;;;16.95;6.40;;;;;;;0.19;60.67;99232.22;5000848;28;20151;-73
2023/03/07 01:39:59;;;;;;;11.50;4.72;;;;;;;0.20;60.09;99232.19;5010956;28;20121;-70
2023/03/07 01:42:29;;;;;;;18.33;5.68;;;;;;;-0.16;61.05;99229.59;5002251;28;20058;-70
2023/03/07 01:45:06;;;;;;;10.60;4.90;;;;;;;0.01;60.61;99224.09;5002917;28;20033;-70
2023/03/07 01:47:43;;;;;;;11.27;5.47;;;;;;;-0.21;61.70;99217.75;5001880;28;20053;-70
2023/03/07 01:50:18;;;;;;;12.32;5.80;;;;;;;-0.11;61.13;99215.81;5003070;28;20034;-70
2023/03/07 01:52:48;;;;;;;13.70;4.90;;;;;;;-0.15;60.84;99197.91;4997438;28;20068;-70
2023/03/07 01:55:15;;;;;;;12.43;5.47;;;;;;;-0.24;60.84;99203.22;5002912;28;20407;-70
2023/03/07 01:57:46;;;;;;;14.25;4.88;;;;;;;-0.66;62.10;99198.16;5001258;28;20409;-72
2023/03/07 02:00:21;;;;;;;10.70;3.92;;;;;;;-0.41;61.50;99190.78;5000585;28;20026;-73
2023/03/07 02:02:50;;;;;;;13.48;3.67;;;;;;;-0.23;60.36;99194.66;5004134;28;20053;-69
2023/03/07 02:05:26;;;;;;;9.05;3.28;;;;;;;-0.50;61.08;99187.53;5000969;28;20038;-72
2023/03/07 02:07:54;;;;;;;9.82;3.13;;;;;;;-0.71;61.04;99182.00;5000993;28;20068;-69
2023/03/07 02:10:24;;;;;;;7.60;2.65;;;;;;;-0.82;61.79;99183.94;4992766;28;20414;-71
2023/03/07 02:12:53;;;;;;;5.30;1.25;;;;;;;-0.73;61.04;99176.03;4998363;28;20050;-70
2023/03/07 02:15:18;;;;;;;9.32;2.35;;;;;;;-0.88;61.59;99186.66;5002610;28;20029;-71
2023/03/07 02:17:44;;;;;;;6.18;1.75;;;;;;;-0.72;61.01;99159.78;5007333;28;20045;-71
2023/03/07 02:20:45;;;;;;;7.28;1.95;;;;;;;-0.57;60.45;99159.47;5017444;28;20147;-71
2023/03/07 02:23:37;;;;;;;9.73;2.13;;;;;;;-0.52;60.55;99161.09;5007484;28;20046;-70
2023/03/07 02:26:21;;;;;;;7.28;3.05;;;;;;;-0.26;59.68;99148.53;4978148;28;20470;-69
2023/03/07 02:28:47;;;;;;;11.20;2.42;;;;;;;-0.70;60.88;99147.78;4983536;28;20086;-69
2023/03/07 02:31:13;;;;;;;7.10;1.50;;;;;;;-0.60;60.29;99138.97;5002858;28;20037;-71
2023/03/07 02:33:39;;;;;;;9.00;2.00;;;;;;;-0.90;61.42;99139.66;5003412;28;20041;-67
2023/03/07 02:36:12;;;;;;;10.05;1.60;;;;;;;-0.61;60.46;99137.31;5002309;28;20037;-68
2023/03/07 02:38:47;;;;;;;12.07;1.65;;;;;;;-0.82;61.08;99142.88;4998979;28;20230;-68
2023/03/07 02:41:18;;;;;;;7.43;1.30;;;;;;;-0.73;60.12;99140.13;4999260;28;20033;-71
2023/03/07 02:43:44;;;;;;;10.05;1.33;;;;;;;-1.14;61.09;99128.97;5003503;28;20685;-68
2023/03/07 02:46:10;;;;;;;5.68;0.65;;;;;;;-1.34;61.53;99139.59;5009049;28;20513;-68
2023/03/07 02:48:35;;;;;;;8.27;0.75;;;;;;;-0.74;59.26;99122.22;4984029;28;20034;-68
2023/03/07 02:51:01;;;;;;;14.15;0.85;;;;;;;-0.76;59.46;99124.81;4999207;28;20059;-68
2023/03/07 02:53:27;;;;;;;4.05;0.40;;;;;;;-0.82;59.06;99122.38;4998646;28;20077;-68
2023/03/07 02:55:52;;;;;;;9.55;0.85;;;;;;;-0.59;58.63;99125.28;5005791;28;20104;-67
2023/03/07 02:58:18;;;;;;;8.77;0.77;;;;;;;-0.98;58.83;99122.69;4999723;28;20691;-69
2023/03/07 03:00:43;;;;;;;8.05;0.30;;;;;;;-0.74;58.00;99120.50;4998457;28;20930;-66
2023/03/07 03:03:10;;;;;;;9.88;0.75;;;;;;;-0.98;58.58;99122.69;4996562;28;20042;-66
2023/03/07 03:05:36;;;;;;;5.95;0.45;;;;;;;-0.69;57.73;99118.66;4998603;28;20026;-67
2023/03/07 03:08:01;;;;;;;6.18;1.02;;;;;;;-1.49;59.71;99122.78;5001135;28;20607;-66
2023/03/07 03:10:28;;;;;;;3.60;0.73;;;;;;;-1.22;58.65;99128.25;4998608;28;20025;-66
2023/03/07 03:12:54;;;;;;;9.55;0.52;;;;;;;-1.31;59.29;99126.72;4981979;28;20140;-67
2023/03/07 03:15:20;;;;;;;4.97;1.05;;;;;;;-1.15;59.27;99123.88;4999688;28;20638;-65
2023/03/07 03:17:45;;;;;;;6.75;1.00;;;;;;;-0.78;57.99;99121.44;5001233;28;20562;-70
2023/03/07 03:20:12;;;;;;;9.32;0.25;;;;;;;-0.80;57.38;99115.47;5008791;28;20034;-66
2023/03/07 03:22:39;;;;;;;4.22;0.80;;;;;;;-1.42;58.47;99101.31;4998538;28;20134;-69
2023/03/07 03:25:08;;;;;;;6.60;0.35;;;;;;;-1.11;57.74;99100.69;5014582;28;20121;-67
2023/03/07 03:27:36;;;;;;;5.50;0.20;;;;;;;-1.21;57.66;99109.47;5000982;28;20064;-67
2023/03/07 03:30:04;;;;;;;2.58;0.30;;;;;;;-1.26;58.55;99121.53;5001495;28;20033;-66
2023/03/07 03:32:33;;;;;;;4.13;0.30;;;;;;;-1.09;57.75;99103.25;4985314;28;20494;-65
2023/03/07 03:34:59;;;;;;;5.82;0.93;;;;;;;-1.44;58.70;99108.19;5008392;28;20080;-64
2023/03/07 03:37:25;;;;;;;5.13;0.45;;;;;;;-1.26;58.17;99095.91;4998486;28;20046;-66
2023/03/07 03:39:53;;;;;;;5.47;0.20;;;;;;;-1.19;56.84;99097.47;5001044;28;20057;-67
2023/03/07 03:42:19;;;;;;;7.20;0.55;;;;;;;-1.14;57.12;99111.03;5014135;28;20050;-66
2023/03/07 03:44:44;;;;;;;4.20;0.32;;;;;;;-1.13;57.02;99101.59;5003234;28;20045;-73
2023/03/07 03:47:11;;;;;;;5.78;0.20;;;;;;;-0.90;56.46;99106.31;4985959;28;20048;-70
2023/03/07 03:49:37;;;;;;;12.95;1.45;;;;;;;-1.12;56.77;99088.75;4982464;28;20049;-69
2023/03/07 03:52:03;;;;;;;6.13;0.22;;;;;;;-1.33;56.88;99102.00;5000978;28;20536;-69
2023/03/07 03:54:30;;;;;;;12.73;0.35;;;;;;;-1.37;56.89;99098.66;5002211;28;20087;-70
2023/03/07 03:56:56;;;;;;;4.40;0.38;;;;;;;-1.13;56.58;99091.34;5001314;28;20026;-72
2023/03/07 03:59:22;;;;;;;3.22;0.10;;;;;;;-1.34;57.08;99101.16;4989104;28;20041;-70
2023/03/07 04:01:48;;;;;;;4.22;0.40;;;;;;;-1.21;56.30;99110.31;5000345;28;20080;-70
2023/03/07 04:04:14;;;;;;;8.48;0.55;;;;;;;-1.63;57.43;99092.31;4984984;28;20057;-72
2023/03/07 04:06:41;;;;;;;3.15;0.10;;;;;;;-1.30;56.59;99099.41;4987769;28;20061;-72
2023/03/07 04:09:08;;;;;;;8.60;1.02;;;;;;;-1.19;56.45;99092.34;4993605;28;20045;-70
2023/03/07 04:11:35;;;;;;;7.40;0.68;;;;;;;-1.19;56.46;99097.47;4996269;28;20560;-70
2023/03/07 04:14:01;;;;;;;8.77;0.77;;;;;;;-1.61;57.90;99087.16;4999857;28;20107;-72
2023/03/07 04:16:27;;;;;;;5.18;0.38;;;;;;;-1.20;56.42;99088.06;4998689;28;20037;-70
2023/03/07 04:18:54;;;;;;;7.68;0.20;;;;;;;-1.54;56.82;99083.59;5001431;28;20103;-72
2023/03/07 04:21:20;;;;;;;2.33;0.20;;;;;;;-1.42;57.22;99091.06;4996311;28;20030;-73
2023/03/07 04:23:49;;;;;;;6.72;0.40;;;;;;;-1.46;57.23;99092.00;5014845;28;20045;-73
2023/03/07 04:26:15;;;;;;;2.03;0.10;;;;;;;-1.71;57.57;99086.50;4981303;28;20295;-72
2023/03/07 04:28:44;;;;;;;5.53;0.30;;;;;;;-1.25;56.61;99083.03;5005245;28;20068;-73
2023/03/07 04:31:26;;;;;;;7.07;0.77;;;;;;;-1.53;57.29;99082.75;5002956;28;20099;-74
2023/03/07 04:33:53;;;;;;;5.60;0.10;;;;;;;-1.48;56.61;99080.94;4999425;28;20037;-74
2023/03/07 04:36:20;;;;;;;6.22;0.28;;;;;;;-1.39;56.69;99080.75;4996862;28;20478;-71
2023/03/07 04:38:47;;;;;;;7.90;0.63;;;;;;;-1.01;55.65;99091.97;4998955;28;20045;-74
2023/03/07 04:41:19;;;;;;;4.18;0.68;;;;;;;-0.90;55.38;99088.34;4997843;28;20061;-75
2023/03/07 04:43:46;;;;;;;4.32;0.10;;;;;;;-0.70;54.92;99086.19;4984039;28;20145;-76
2023/03/07 04:46:13;;;;;;;4.15;0.10;;;;;;;-1.41;57.12;99076.53;4996573;28;20021;-75
2023/03/07 04:48:39;;;;;;;6.55;0.50;;;;;;;-0.70;55.47;99083.63;4998325;28;20073;-75
2023/03/07 04:51:05;;;;;;;2.35;0.20;;;;;;;-0.58;55.28;99090.19;4999136;28;20041;-74
2023/03/07 04:53:31;;;;;;;4.60;0.20;;;;;;;-0.79;55.90;99089.81;4999875;28;20041;-75
2023/03/07 04:56:01;;;;;;;2.03;0.10;;;;;;;-1.08;57.12;99090.41;5006112;28;20107;-69
2023/03/07 04:58:28;;;;;;;4.43;0.43;;;;;;;-0.94;56.90;99076.47;4989881;28;20069;-69
2023/03/07 05:00:55;;;;;;;3.28;0.30;;;;;;;-1.14;57.56;99084.53;4998501;28;20059;-68
2023/03/07 05:03:22;;;;;;;2.80;0.40;;;;;;;-1.24;57.81;99082.19;4989118;28;20057;-71
2023/03/07 05:05:48;;;;;;;7.85;0.38;;;;;;;-0.90;56.62;99094.31;4998350;28;20116;-71
2023/03/07 05:08:14;;;;;;;7.03;0.30;;;;;;;-0.95;57.09;99090.16;4996898;28;20076;-70
2023/03/07 05:10:40;;;;;;;4.97;0.35;;;;;;;-1.20;58.15;99101.75;5006912;28;20501;-73
2023/03/07 05:13:07;;;;;;;0.98;0.25;;;;;;;-1.24;58.91;99089.00;4996392;28;20040;-72
2023/03/07 05:15:33;;;;;;;1.73;0.32;;;;;;;-1.40;59.35;99088.47;4997856;28;20034;-70
2023/03/07 05:17:59;;;;;;;1.83;0.10;;;;;;;-1.21;58.28;99088.94;4979185;28;20041;-73
2023/03/07 05:20:25;;;;;;;0.20;0.00;;;;;;;-1.10;57.71;99099.84;4981294;28;20029;-73
2023/03/07 05:22:51;;;;;;;8.18;0.30;;;;;;;-0.60;56.71;99100.50;5000051;28;20049;-73
2023/03/07 05:25:17;;;;;;;3.90;0.10;;;;;;;-0.74;57.81;99099.97;5002466;28;20557;-75
2023/03/07 05:27:42;;;;;;;2.13;0.00;;;;;;;-0.99;58.81;99094.53;5007395;28;20107;-74
2023/03/07 05:30:10;;;;;;;5.65;1.05;;;;;;;-0.61;57.91;99116.78;4987465;28;20034;-74
2023/03/07 05:32:36;;;;;;;9.52;0.52;;;;;;;-0.71;58.04;99109.31;5001622;28;20148;-73
2023/03/07 05:35:04;;;;;;;2.63;0.20;;;;;;;-1.27;60.02;99112.97;4992784;28;20028;-75
2023/03/07 05:37:30;;;;;;;0.98;0.20;;;;;;;-1.66;60.79;99120.53;5004207;28;20140;-71
2023/03/07 05:39:55;;;;;;;11.07;0.30;;;;;;;-1.55;60.70;99128.03;5001459;28;20143;-70
2023/03/07 05:42:21;;;;;;;1.65;0.05;;;;;;;-1.42;60.29;99101.31;4998542;28;20937;-69
2023/03/07 05:44:47;;;;;;;1.33;0.63;;;;;;;-1.35;60.11;99108.88;5001241;28;20029;-69
2023/03/07 05:47:13;;;;;;;2.70;0.10;;;;;;;-1.45;60.33;99111.63;5008121;28;20042;-69
2023/03/07 05:49:38;;;;;;;3.85;0.13;;;;;;;-1.21;59.73;99110.31;5003382;28;20098;-69
2023/03/07 05:52:04;;;;;;;2.03;0.28;;;;;;;-1.26;60.04;99119.81;5003661;28;20057;-70
2023/03/07 05:54:30;;;;;;;5.93;0.10;;;;;;;-1.13;59.83;99120.38;5002407;28;20030;-72
2023/03/07 05:56:55;;;;;;;3.15;0.22;;;;;;;-0.84;58.94;99124.13;5001331;28;20517;-71
2023/03/07 05:59:21;;;;;;;7.57;0.10;;;;;;;-1.03;59.94;99134.75;4992393;28;20057;-70
2023/03/07 06:01:49;;;;;;;8.60;0.20;;;;;;;-0.80;58.69;99136.84;5006377;28;20392;-68
2023/03/07 06:04:15;;;;;;;2.38;0.20;;;;;;;-1.01;59.78;99143.28;5000621;28;20030;-69
2023/03/07 06:06:41;;;;;;;5.55;0.47;;;;;;;-0.84;58.38;99144.63;5000285;28;20174;-71
2023/03/07 06:09:08;;;;;;;4.35;0.70;;;;;;;-0.85;58.45;99140.41;4993010;28;20048;-71
2023/03/07 06:11:33;;;;;;;10.38;0.45;;;;;;;-0.77;58.14;99136.78;4998212;28;20037;-72
2023/03/07 06:13:59;;;;;;;8.23;0.30;;;;;;;-0.52;56.92;99140.56;5001363;28;20156;-72
2023/03/07 06:16:24;;;;;;;5.25;0.22;;;;;;;-0.60;56.34;99144.13;5013563;28;20025;-74
2023/03/07 06:18:50;;;;;;;9.05;0.47;;;;;;;-0.51;55.77;99129.41;5008999;28;20072;-74
2023/03/07 06:21:17;;;;;;;12.52;1.02;;;;;;;-0.49;55.51;99135.34;4980384;28;20102;-70
2023/03/07 06:23:44;;;;;;;7.28;0.38;;;;;;;-0.74;56.07;99145.31;5014369;28;20049;-70
2023/03/07 06:26:13;;;;;;;5.20;0.63;;;;;;;-0.49;55.12;99135.34;4997639;28;20064;-74
2023/03/07 06:28:41;;;;;;;7.65;0.52;;;;;;;-0.54;55.59;99143.16;5000768;28;20513;-77
2023/03/07 06:31:09;;;;;;;11.48;0.28;;;;;;;-0.39;54.75;99147.13;4986155;28;20029;-76
2023/03/07 06:33:35;;;;;;;1.67;0.20;;;;;;;-0.93;55.71;99134.56;4999953;28;20095;-73
2023/03/07 06:36:05;;;;;;;7.03;0.43;;;;;;;-0.39;55.06;99136.84;5003167;28;20471;-68
2023/03/07 06:38:30;;;;;;;4.88;0.73;;;;;;;-0.11;54.05;99142.16;4999964;28;20967;-69
2023/03/07 06:40:57;;;;;;;10.40;0.77;;;;;;;-0.82;55.75;99138.59;5002831;28;20060;-68
2023/03/07 06:43:23;;;;;;;6.75;0.68;;;;;;;0.01;53.74;99135.88;5013608;28;22227;-69
2023/03/07 06:45:48;;;;;;;4.03;0.30;;;;;;;-0.17;54.31;99153.44;4993828;28;20037;-68
2023/03/07 06:48:14;;;;;;;3.90;0.55;;;;;;;-0.28;54.63;99154.53;4998627;28;20053;-69
2023/03/07 06:50:40;;;;;;;5.15;0.30;;;;;;;-0.57;54.82;99159.47;5006992;28;20061;-70
2023/03/07 06:53:06;;;;;;;8.32;0.60;;;;;;;-0.52;54.72;99179.06;4983129;28;20529;-69
2023/03/07 06:55:32;;;;;;;9.30;0.30;;;;;;;-0.49;54.86;99181.56;5004369;28;20041;-74
2023/03/07 06:57:57;;;;;;;7.07;0.43;;;;;;;-0.29;54.92;99184.53;5005402;28;20029;-72
2023/03/07 07:00:23;;;;;;;6.50;0.52;;;;;;;-0.76;55.90;99186.38;5018722;28;20038;-73
2023/03/07 07:02:48;;;;;;;15.25;0.77;;;;;;;-0.44;55.23;99184.84;4985970;28;20038;-73
2023/03/07 07:05:14;;;;;;;6.38;0.57;;;;;;;-0.13;54.59;99179.88;5009571;28;20116;-68
2023/03/07 07:07:39;;;;;;;8.20;0.55;;;;;;;-0.18;54.53;99189.41;5002034;28;20049;-77
2023/03/07 07:10:06;;;;;;;7.95;0.50;;;;;;;0.19;53.85;99181.69;5000189;28;20044;-75
2023/03/07 07:12:32;;;;;;;5.55;0.75;;;;;;;0.10;53.62;99191.34;5005682;28;20046;-78
2023/03/07 07:15:01;;;;;;;6.38;0.50;;;;;;;0.39;52.88;99188.06;5001720;28;20106;-72
2023/03/07 07:17:28;;;;;;;8.40;1.33;;;;;;;0.28;53.20;99189.19;5004102;28;21058;-67
2023/03/07 07:19:53;;;;;;;6.35;0.55;;;;;;;0.33;52.16;99190.81;5002700;28;20530;-68
2023/03/07 07:22:19;;;;;;;6.50;0.57;;;;;;;0.26;52.61;99190.94;5003640;28;20107;-69
2023/03/07 07:24:45;;;;;;;3.08;0.30;;;;;;;0.48;51.67;99193.84;5001926;28;20025;-77
2023/03/07 07:27:10;;;;;;;12.00;0.50;;;;;;;0.51;51.87;99197.22;4991662;28;20558;-75
2023/03/07 07:29:36;;;;;;;4.15;0.20;;;;;;;0.62;51.51;99192.63;5000266;28;20109;-76
2023/03/07 07:32:02;;;;;;;12.05;0.80;;;;;;;0.59;51.15;99191.00;5005644;28;20099;-82
2023/03/07 07:34:27;;;;;;;6.80;0.98;;;;;;;0.63;51.10;99192.56;5001782;28;20033;-71
2023/03/07 07:36:53;;;;;;;7.53;1.02;;;;;;;0.45;51.11;99198.19;5000580;28;20109;-71
2023/03/07 07:39:20;;;;;;;4.78;0.95;;;;;;;0.79;50.25;99205.03;4998499;28;20080;-68
2023/03/07 07:41:46;;;;;;;8.40;1.17;;;;;;;0.69;50.06;99205.28;5014984;28;20034;-68
2023/03/07 07:44:13;;;;;;;11.98;1.30;;;;;;;0.65;49.93;99208.81;5000051;28;20572;-69
2023/03/07 07:47:00;;;;;;;9.25;0.68;;;;;;;0.62;49.33;99216.63;4998914;28;20049;-69
2023/03/07 07:49:25;;;;;;;7.38;1.20;;;;;;;0.73;48.99;99223.22;5000933;28;20033;-68
2023/03/07 07:51:51;;;;;;;5.30;0.50;;;;;;;1.05;48.15;99215.47;5015139;28;20041;-68
2023/03/07 07:54:17;;;;;;;7.13;0.28;;;;;;;0.77;48.75;99217.09;4997672;28;20652;-69
2023/03/07 07:56:43;;;;;;;10.32;0.47;;;;;;;0.68;48.38;99219.03;4997098;28;20037;-68
2023/03/07 07:59:09;;;;;;;8.70;0.65;;;;;;;1.15;47.80;99221.22;4992807;28;20108;-68
2023/03/07 08:01:35;;;;;;;3.28;0.43;;;;;;;1.51;47.08;99226.25;5003832;28;20033;-68
2023/03/07 08:04:00;;;;;;;4.40;0.30;;;;;;;1.31;46.49;99227.63;5002139;28;20180;-68
2023/03/07 08:06:27;;;;;;;0.95;0.10;;;;;;;1.60;46.14;99223.41;4986042;28;20057;-69
2023/03/07 08:08:54;;;;;;;8.32;0.38;;;;;;;1.69;45.05;99228.28;4999837;28;20774;-68
2023/03/07 08:11:21;;;;;;;3.22;0.20;;;;;;;1.87;44.73;99229.47;4996775;28;20112;-69
2023/03/07 08:13:47;;;;;;;5.20;0.32;;;;;;;2.59;43.40;99225.50;4999624;28;20117;-68
2023/03/07 08:16:15;;;;;;;7.28;0.22;;;;;;;2.56;43.28;99223.88;4994909;28;20602;-69
2023/03/07 08:18:43;;;;;;;2.88;0.05;;;;;;;0.91;46.97;99276.75;5002226;28;20045;-69
2023/03/07 08:21:08;;;;;;;2.95;0.40;;;;;;;0.39;50.01;99266.03;4999387;28;20457;-69
2023/03/07 08:23:34;;;;;;;8.05;0.20;;;;;;;0.02;51.17;99266.88;4992191;28;20910;-69
2023/03/07 08:26:02;;;;;;;0.65;0.10;;;;;;;0.09;51.60;99267.56;4998232;28;20029;-68
2023/03/07 08:28:28;;;;;;;3.22;0.10;;;;;;;0.45;50.48;99265.03;5003534;28;20057;-69
2023/03/07 08:30:54;;;;;;;6.93;0.77;;;;;;;0.65;50.53;99257.66;5001169;28;20033;-69
2023/03/07 08:33:19;;;;;;;3.05;0.20;;;;;;;0.12;51.20;99261.50;4994366;28;20712;-70
2023/03/07 08:35:45;;;;;;;4.40;0.77;;;;;;;0.44;50.48;99259.03;5014252;28;20067;-70
2023/03/07 08:38:11;;;;;;;5.95;0.68;;;;;;;0.79;49.99;99264.19;4998422;28;20709;-69
2023/03/07 08:40:36;;;;;;;2.25;0.45;;;;;;;0.56;50.00;99268.19;4998316;28;20030;-68
2023/03/07 08:43:02;;;;;;;3.15;0.10;;;;;;;0.62;50.04;99268.03;5001648;28;20058;-68
2023/03/07 08:45:28;;;;;;;9.38;0.65;;;;;;;0.94;49.12;99273.25;5002017;28;20103;-67
2023/03/07 08:47:54;;;;;;;11.85;1.08;;;;;;;1.43;48.07;99267.66;5003089;28;20084;-67
2023/03/07 08:50:25;;;;;;;16.75;0.55;;;;;;;2.03;45.71;99277.97;5002901;28;20645;-68
2023/03/07 08:52:51;;;;;;;10.48;0.88;;;;;;;1.25;46.83;99268.13;4998618;28;20519;-68
2023/03/07 08:55:16;;;;;;;8.95;1.10;;;;;;;1.50;47.04;99279.47;5003386;28;20033;-67
2023/03/07 08:57:44;;;;;;;6.25;0.50;;;;;;;1.38;46.77;99278.94;4999525;28;20046;-66
2023/03/07 09:00:11;;;;;;;4.45;0.20;;;;;;;1.73;46.44;99285.72;5003952;28;20065;-67
2023/03/07 09:02:36;;;;;;;6.00;1.20;;;;;;;1.84;44.72;99281.09;4999011;28;20069;-68
2023/03/07 09:05:03;;;;;;;3.85;0.30;;;;;;;2.00;44.27;99285.78;5002259;28;20570;-68
2023/03/07 09:07:28;;;;;;;8.10;0.57;;;;;;;2.54;43.84;99284.97;4995535;28;20143;-67
2023/03/07 09:09:54;;;;;;;5.18;0.20;;;;;;;2.54;43.29;99280.66;4998499;28;20692;-66
2023/03/07 09:12:19;;;;;;;9.23;0.20;;;;;;;1.96;42.10;99276.47;4999473;28;20046;-68
2023/03/07 09:14:45;;;;;;;2.25;0.10;;;;;;;1.68;42.69;99282.41;4998983;28;20091;-67
2023/03/07 09:17:10;;;;;;;5.43;0.17;;;;;;;1.83;42.75;99279.41;5000066;28;20033;-66
2023/03/07 09:19:36;;;;;;;5.93;0.73;;;;;;;2.20;41.86;99280.88;4994210;28;20133;-68
2023/03/07 09:22:01;;;;;;;9.63;0.50;;;;;;;2.66;41.46;99284.56;4998737;28;20048;-67
2023/03/07 09:24:26;;;;;;;4.55;0.30;;;;;;;2.49;42.15;99286.88;4997874;28;20033;-67
2023/03/07 09:26:52;;;;;;;4.38;0.43;;;;;;;2.34;42.65;99293.34;4997225;28;20924;-68
2023/03/07 09:29:18;;;;;;;3.33;0.30;;;;;;;1.67;43.86;99303.91;4991078;28;20050;-68
2023/03/07 09:31:43;;;;;;;9.57;0.80;;;;;;;1.40;44.73;99303.81;4995247;28;20083;-68
2023/03/07 09:34:10;;;;;;;7.72;0.30;;;;;;;1.73;44.13;99298.59;4994259;28;20532;-67
2023/03/07 09:36:36;;;;;;;9.27;0.63;;;;;;;2.63;42.50;99295.00;4992753;28;20029;-67
2023/03/07 09:39:03;;;;;;;8.30;0.65;;;;;;;2.93;40.29;99292.28;4997252;28;20784;-67
2023/03/07 09:41:32;;;;;;;11.30;0.43;;;;;;;4.25;39.57;99290.09;4989715;28;20044;-69
2023/03/07 09:44:07;;;;;;;2.75;0.28;;;;;;;4.30;38.16;99303.72;4999942;28;20136;-70
2023/03/07 09:47:25;;;;;;;4.78;0.40;;;;;;;4.41;37.10;99288.63;4996885;28;20034;-67
2023/03/07 09:49:53;;;;;;;7.15;0.40;;;;;;;5.36;36.39;99293.38;5004376;28;20041;-68
2023/03/07 09:52:22;;;;;;;6.28;0.85;;;;;;;3.35;35.65;99291.75;4997910;28;20049;-68
2023/03/07 09:55:14;;;;;;;5.03;0.50;;;;;;;3.03;36.34;99303.16;4996338;28;20034;-69
2023/03/07 09:57:52;;;;;;;6.45;0.57;;;;;;;2.34;35.07;99306.22;4989521;28;20076;-69
2023/03/07 10:00:20;;;;;;;3.25;0.20;;;;;;;2.33;35.48;99312.25;5013135;28;20270;-69
2023/03/07 10:03:01;;;;;;;0.98;0.57;;;;;;;3.04;33.87;99312.59;4997749;28;20574;-68
2023/03/07 10:05:47;;;;;;;7.45;0.30;;;;;;;3.51;33.61;99305.78;4996631;28;20057;-69
2023/03/07 10:08:16;;;;;;;4.68;0.55;;;;;;;3.86;32.68;99305.41;5000567;28;20061;-69
2023/03/07 10:11:05;;;;;;;3.65;0.57;;;;;;;3.37;32.21;99305.44;4998177;28;20037;-67
2023/03/07 10:13:40;;;;;;;4.68;0.30;;;;;;;3.89;31.94;99303.53;4993275;28;20525;-69
2023/03/07 10:16:33;;;;;;;4.05;0.50;;;;;;;4.12;31.43;99304.41;4999531;28;20048;-69
2023/03/07 10:19:04;;;;;;;2.38;0.40;;;;;;;5.06;30.89;99311.91;4998914;28;20061;-68
2023/03/07 10:21:46;;;;;;;4.57;0.20;;;;;;;5.07;29.95;99312.75;4982308;28;20072;-69
2023/03/07 10:24:19;;;;;;;1.17;0.55;;;;;;;5.86;30.10;99316.22;4998884;28;20097;-69
2023/03/07 10:26:50;;;;;;;3.08;0.32;;;;;;;4.79;29.04;99319.88;4995647;28;20045;-68
2023/03/07 10:29:17;;;;;;;;;;;;;;;4.67;29.66;99319.53;4999019;28;20065;-69
2023/03/07 10:31:50;;;;;;;3.58;0.13;;;;;;;4.84;29.06;99320.53;4986241;28;19956;-69
2023/03/07 10:34:27;;;;;;;7.15;0.25;;;;;;;4.35;29.90;99319.91;4997931;28;20070;-69
2023/03/07 10:36:58;;;;;;;0.25;0.05;;;;;;;5.01;30.75;99321.59;4999895;28;20442;-69
2023/03/07 10:39:43;;;;;;;3.50;0.10;;;;;;;5.40;29.94;99324.25;4996608;28;20037;-68
2023/03/07 10:42:14;;;;;;;3.10;0.20;;;;;;;4.82;29.90;99318.91;5002706;28;20503;-68
2023/03/07 10:44:40;;;;;;;3.13;0.10;;;;;;;4.35;30.00;99327.66;4996167;28;20057;-69
2023/03/07 10:47:16;;;;;;;0.90;0.10;;;;;;;3.83;30.35;99327.06;4989282;28;20036;-69
2023/03/07 10:49:45;;;;;;;2.63;0.10;;;;;;;3.41;29.78;99330.28;4996089;28;20124;-68
2023/03/07 10:52:34;;;;;;;3.08;0.28;;;;;;;3.14;29.74;99344.94;4999907;28;20519;-69
2023/03/07 10:55:37;;;;;;;2.63;0.10;;;;;;;4.80;29.92;99344.84;4998210;28;20033;-68
2023/03/07 10:58:25;;;;;;;1.98;0.30;;;;;;;4.47;29.26;99328.09;4995570;28;20616;-68
2023/03/07 11:01:07;;;;;;;5.25;0.13;;;;;;;4.59;29.70;99333.63;4991242;28;20030;-69
2023/03/07 11:03:44;;;;;;;3.00;0.17;;;;;;;5.09;29.70;99335.06;4996472;28;20056;-69
2023/03/07 11:06:39;;;;;;;6.30;0.20;;;;;;;5.03;29.27;99337.91;4997479;28;20041;-69
2023/03/07 11:09:18;;;;;;;0.13;0.00;;;;;;;6.01;27.60;99333.66;4998667;28;20053;-68
2023/03/07 11:11:50;;;;;;;2.78;0.17;;;;;;;5.44;28.35;99337.94;5010841;28;20053;-68
2023/03/07 11:14:16;;;;;;;4.18;0.30;;;;;;;4.48;29.17;99340.13;4981934;28;20033;-69
2023/03/07 11:16:51;;;;;;;6.60;0.50;;;;;;;4.58;30.22;99344.84;5002034;28;20033;-68
2023/03/07 11:19:54;;;;;;;1.92;0.15;;;;;;;3.88;31.21;99344.97;4996363;28;20034;-68
2023/03/07 11:22:25;;;;;;;3.13;0.15;;;;;;;3.84;31.34;99339.06;4985482;28;20056;-68
2023/03/07 11:25:30;;;;;;;10.23;1.00;;;;;;;3.05;32.06;99353.84;4995385;28;20034;-68
2023/03/07 11:27:57;;;;;;;2.25;0.43;;;;;;;2.75;32.74;99356.50;4996343;28;20054;-68
2023/03/07 11:30:28;;;;;;;4.43;0.25;;;;;;;2.98;32.83;99357.53;5012412;28;20034;-68
2023/03/07 11:33:12;;;;;;;4.50;0.15;;;;;;;3.80;31.65;99358.16;4996968;28;20475;-68
2023/03/07 11:36:13;;;;;;;2.03;0.10;;;;;;;3.98;30.49;99354.06;4996072;28;20037;-70
2023/03/07 11:39:07;;;;;;;2.80;0.13;;;;;;;4.83;28.61;99357.69;4995141;28;20033;-68
2023/03/07 11:41:40;;;;;;;8.55;0.10;;;;;;;5.48;27.98;99349.84;4965369;28;20049;-67
2023/03/07 11:44:05;;;;;;;1.95;0.20;;;;;;;5.62;27.60;99350.09;5004873;28;20116;-68
2023/03/07 11:46:31;;;;;;;2.15;0.00;;;;;;;6.45;26.78;99342.91;4992310;28;20044;-68